sensor_id;sensor_type;location;lat;lon;timestamp;pressure;altitude;pressure_sealevel;temperature;humidity
4705;BME280;2366;51.332;6.610;2022-12-10T00:01:39;100670.94;;;1.20;75.43
4705;BME280;2366;51.332;6.610;2022-12-10T00:04:04;100680.56;;;1.18;75.19
4705;BME280;2366;51.332;6.610;2022-12-10T00:06:33;100679.75;;;1.14;75.11
4705;BME280;2366;51.332;6.610;2022-12-10T00:09:00;100686.75;;;1.12;74.76
4705;BME280;2366;51.332;6.610;2022-12-10T00:11:26;100687.56;;;1.16;75.06
4705;BME280;2366;51.332;6.610;2022-12-10T00:13:52;100690.19;;;1.14;74.94
4705;BME280;2366;51.332;6.610;2022-12-10T00:16:22;100690.34;;;1.08;75.29
4705;BME280;2366;51.332;6.610;2022-12-10T00:18:49;100684.25;;;1.08;75.02
4705;BME280;2366;51.332;6.610;2022-12-10T00:21:16;100685.09;;;1.08;75.56
4705;BME280;2366;51.332;6.610;2022-12-10T00:23:43;100682.47;;;1.10;75.20
4705;BME280;2366;51.332;6.610;2022-12-10T00:26:24;100681.63;;;1.09;75.41
4705;BME280;2366;51.332;6.610;2022-12-10T00:28:51;100678.19;;;1.07;75.61
4705;BME280;2366;51.332;6.610;2022-12-10T00:31:22;100676.53;;;1.03;75.63
4705;BME280;2366;51.332;6.610;2022-12-10T00:33:48;100682.72;;;0.99;74.94
4705;BME280;2366;51.332;6.610;2022-12-10T00:36:20;100683.66;;;0.96;74.98
4705;BME280;2366;51.332;6.610;2022-12-10T00:38:47;100681.88;;;0.97;75.30
4705;BME280;2366;51.332;6.610;2022-12-10T00:41:13;100680.31;;;0.90;74.55
4705;BME280;2366;51.332;6.610;2022-12-10T00:43:39;100690.75;;;0.90;74.88
4705;BME280;2366;51.332;6.610;2022-12-10T00:46:05;100687.38;;;0.85;74.63
4705;BME280;2366;51.332;6.610;2022-12-10T00:48:30;100684.09;;;0.76;74.49
4705;BME280;2366;51.332;6.610;2022-12-10T00:51:08;100690.25;;;0.72;74.74
4705;BME280;2366;51.332;6.610;2022-12-10T00:53:35;100691.19;;;0.70;74.81
4705;BME280;2366;51.332;6.610;2022-12-10T00:56:01;100682.44;;;0.71;75.01
4705;BME280;2366;51.332;6.610;2022-12-10T00:58:28;100688.56;;;0.70;74.81
4705;BME280;2366;51.332;6.610;2022-12-10T01:01:05;100686.81;;;0.70;75.18
4705;BME280;2366;51.332;6.610;2022-12-10T01:03:30;100696.41;;;0.70;75.51
4705;BME280;2366;51.332;6.610;2022-12-10T01:05:56;100686.94;;;0.64;75.37
4705;BME280;2366;51.332;6.610;2022-12-10T01:08:21;100690.38;;;0.66;75.20
4705;BME280;2366;51.332;6.610;2022-12-10T01:10:52;100691.28;;;0.65;75.05
4705;BME280;2366;51.332;6.610;2022-12-10T01:13:17;100687.88;;;0.60;74.54
4705;BME280;2366;51.332;6.610;2022-12-10T01:15:43;100688.00;;;0.55;74.71
4705;BME280;2366;51.332;6.610;2022-12-10T01:18:08;100693.97;;;0.60;75.43
4705;BME280;2366;51.332;6.610;2022-12-10T01:20:35;100692.16;;;0.64;75.41
4705;BME280;2366;51.332;6.610;2022-12-10T01:23:01;100694.84;;;0.61;74.91
4705;BME280;2366;51.332;6.610;2022-12-10T01:25:27;100692.38;;;0.53;74.57
4705;BME280;2366;51.332;6.610;2022-12-10T01:27:52;100705.31;;;0.58;74.90
4705;BME280;2366;51.332;6.610;2022-12-10T01:30:17;100700.06;;;0.61;75.47
4705;BME280;2366;51.332;6.610;2022-12-10T01:32:43;100705.28;;;0.61;75.15
4705;BME280;2366;51.332;6.610;2022-12-10T01:35:08;100712.28;;;0.59;74.88
4705;BME280;2366;51.332;6.610;2022-12-10T01:37:33;100702.81;;;0.53;75.14
4705;BME280;2366;51.332;6.610;2022-12-10T01:39:59;100699.47;;;0.47;74.71
4705;BME280;2366;51.332;6.610;2022-12-10T01:42:24;100708.16;;;0.47;75.49
4705;BME280;2366;51.332;6.610;2022-12-10T01:47:15;100721.09;;;0.53;75.34
4705;BME280;2366;51.332;6.610;2022-12-10T01:49:40;100721.09;;;0.52;75.25
4705;BME280;2366;51.332;6.610;2022-12-10T01:52:08;100723.97;;;0.39;74.77
4705;BME280;2366;51.332;6.610;2022-12-10T01:54:42;100727.53;;;0.34;74.81
4705;BME280;2366;51.332;6.610;2022-12-10T01:57:20;100728.47;;;0.31;75.39
4705;BME280;2366;51.332;6.610;2022-12-10T01:59:51;100728.56;;;0.27;75.14
4705;BME280;2366;51.332;6.610;2022-12-10T02:05:03;100723.34;;;0.25;75.37
4705;BME280;2366;51.332;6.610;2022-12-10T02:10:26;100737.22;;;0.27;75.18
4705;BME280;2366;51.332;6.610;2022-12-10T02:12:57;100739.00;;;0.25;75.16
4705;BME280;2366;51.332;6.610;2022-12-10T02:18:24;100743.28;;;0.29;75.19
4705;BME280;2366;51.332;6.610;2022-12-10T02:20:55;100734.53;;;0.32;75.53
4705;BME280;2366;51.332;6.610;2022-12-10T02:23:24;100734.25;;;0.47;76.07
4705;BME280;2366;51.332;6.610;2022-12-10T02:26:13;100738.94;;;0.75;76.82
4705;BME280;2366;51.332;6.610;2022-12-10T02:31:10;100731.72;;;1.27;77.16
4705;BME280;2366;51.332;6.610;2022-12-10T02:33:41;100724.38;;;1.44;76.71
4705;BME280;2366;51.332;6.610;2022-12-10T02:36:10;100724.00;;;1.59;76.65
4705;BME280;2366;51.332;6.610;2022-12-10T02:38:39;100731.41;;;1.78;76.64
4705;BME280;2366;51.332;6.610;2022-12-10T02:41:12;100732.88;;;1.88;76.59
4705;BME280;2366;51.332;6.610;2022-12-10T02:43:39;100720.44;;;1.98;76.34
4705;BME280;2366;51.332;6.610;2022-12-10T02:46:05;100729.00;;;2.04;76.64
4705;BME280;2366;51.332;6.610;2022-12-10T02:48:32;100729.00;;;2.04;76.48
4705;BME280;2366;51.332;6.610;2022-12-10T02:50:58;100727.19;;;2.07;76.14
4705;BME280;2366;51.332;6.610;2022-12-10T02:53:23;100721.91;;;2.08;76.19
4705;BME280;2366;51.332;6.610;2022-12-10T02:55:57;100728.06;;;2.05;75.79
4705;BME280;2366;51.332;6.610;2022-12-10T03:04:01;100729.72;;;2.10;76.23
4705;BME280;2366;51.332;6.610;2022-12-10T03:06:45;100733.97;;;2.14;76.74
4705;BME280;2366;51.332;6.610;2022-12-10T03:09:21;100740.72;;;2.22;76.53
4705;BME280;2366;51.332;6.610;2022-12-10T03:11:49;100738.00;;;2.25;76.98
4705;BME280;2366;51.332;6.610;2022-12-10T03:14:24;100738.88;;;2.26;76.58
4705;BME280;2366;51.332;6.610;2022-12-10T03:16:58;100736.28;;;2.26;76.43
4705;BME280;2366;51.332;6.610;2022-12-10T03:19:51;100740.72;;;2.22;76.52
4705;BME280;2366;51.332;6.610;2022-12-10T03:22:18;100750.41;;;2.19;76.93
4705;BME280;2366;51.332;6.610;2022-12-10T03:24:45;100745.00;;;2.25;76.84
4705;BME280;2366;51.332;6.610;2022-12-10T03:27:13;100749.09;;;2.35;76.93
4705;BME280;2366;51.332;6.610;2022-12-10T03:29:44;100752.56;;;2.36;76.63
4705;BME280;2366;51.332;6.610;2022-12-10T03:32:10;100751.72;;;2.35;77.06
4705;BME280;2366;51.332;6.610;2022-12-10T03:34:37;100759.56;;;2.35;76.57
4705;BME280;2366;51.332;6.610;2022-12-10T03:37:03;100757.97;;;2.30;76.21
4705;BME280;2366;51.332;6.610;2022-12-10T03:39:30;100759.88;;;2.23;76.51
4705;BME280;2366;51.332;6.610;2022-12-10T03:41:56;100755.72;;;2.16;76.82
4705;BME280;2366;51.332;6.610;2022-12-10T03:44:49;100765.38;;;2.14;76.80
4705;BME280;2366;51.332;6.610;2022-12-10T03:47:15;100766.19;;;2.16;76.59
4705;BME280;2366;51.332;6.610;2022-12-10T03:49:41;100766.03;;;2.22;76.47
4705;BME280;2366;51.332;6.610;2022-12-10T03:52:07;100765.91;;;2.26;76.88
4705;BME280;2366;51.332;6.610;2022-12-10T03:54:32;100755.41;;;2.28;76.53
4705;BME280;2366;51.332;6.610;2022-12-10T03:56:57;100768.38;;;2.33;76.71
4705;BME280;2366;51.332;6.610;2022-12-10T03:59:23;100763.91;;;2.36;76.61
4705;BME280;2366;51.332;6.610;2022-12-10T04:01:48;100762.09;;;2.38;76.89
4705;BME280;2366;51.332;6.610;2022-12-10T04:04:13;100758.66;;;2.36;76.73
4705;BME280;2366;51.332;6.610;2022-12-10T04:06:40;100751.84;;;2.31;76.82
4705;BME280;2366;51.332;6.610;2022-12-10T04:09:05;100756.38;;;2.24;76.13
4705;BME280;2366;51.332;6.610;2022-12-10T04:11:31;100751.50;;;2.10;75.82
4705;BME280;2366;51.332;6.610;2022-12-10T04:13:56;100753.50;;;2.00;76.25
4705;BME280;2366;51.332;6.610;2022-12-10T04:16:40;100748.66;;;1.85;75.62
4705;BME280;2366;51.332;6.610;2022-12-10T04:19:10;100757.72;;;1.70;75.55
4705;BME280;2366;51.332;6.610;2022-12-10T04:21:37;100752.84;;;1.56;75.49
4705;BME280;2366;51.332;6.610;2022-12-10T04:24:24;100754.06;;;1.40;75.26
4705;BME280;2366;51.332;6.610;2022-12-10T04:29:39;100751.94;;;1.17;75.73
4705;BME280;2366;51.332;6.610;2022-12-10T04:32:04;100755.72;;;1.03;75.38
4705;BME280;2366;51.332;6.610;2022-12-10T04:34:30;100745.41;;;0.97;75.67
4705;BME280;2366;51.332;6.610;2022-12-10T04:36:57;100749.91;;;0.91;75.84
4705;BME280;2366;51.332;6.610;2022-12-10T04:39:22;100742.25;;;0.81;75.98
4705;BME280;2366;51.332;6.610;2022-12-10T04:41:49;100753.66;;;0.77;76.06
4705;BME280;2366;51.332;6.610;2022-12-10T04:44:15;100750.22;;;0.75;76.06
4705;BME280;2366;51.332;6.610;2022-12-10T04:46:41;100758.16;;;0.69;75.88
4705;BME280;2366;51.332;6.610;2022-12-10T04:49:07;100747.81;;;0.65;75.67
4705;BME280;2366;51.332;6.610;2022-12-10T04:51:32;100757.53;;;0.58;75.80
4705;BME280;2366;51.332;6.610;2022-12-10T04:53:58;100754.91;;;0.58;76.02
4705;BME280;2366;51.332;6.610;2022-12-10T04:56:23;100754.06;;;0.56;76.47
4705;BME280;2366;51.332;6.610;2022-12-10T04:58:49;100755.94;;;0.51;75.98
4705;BME280;2366;51.332;6.610;2022-12-10T05:01:15;100753.34;;;0.49;75.83
4705;BME280;2366;51.332;6.610;2022-12-10T05:03:41;100759.41;;;0.50;76.15
4705;BME280;2366;51.332;6.610;2022-12-10T05:06:08;100764.69;;;0.47;76.13
4705;BME280;2366;51.332;6.610;2022-12-10T05:08:36;100771.63;;;0.48;75.98
4705;BME280;2366;51.332;6.610;2022-12-10T05:11:02;100771.69;;;0.46;76.06
4705;BME280;2366;51.332;6.610;2022-12-10T05:13:28;100768.22;;;0.46;76.00
4705;BME280;2366;51.332;6.610;2022-12-10T05:15:54;100774.31;;;0.45;75.92
4705;BME280;2366;51.332;6.610;2022-12-10T05:18:19;100764.78;;;0.42;76.05
4705;BME280;2366;51.332;6.610;2022-12-10T05:20:44;100768.28;;;0.41;75.93
4705;BME280;2366;51.332;6.610;2022-12-10T05:23:09;100766.59;;;0.38;75.99
4705;BME280;2366;51.332;6.610;2022-12-10T05:26:14;100768.31;;;0.39;76.13
4705;BME280;2366;51.332;6.610;2022-12-10T05:28:43;100768.34;;;0.38;76.13
4705;BME280;2366;51.332;6.610;2022-12-10T05:31:18;100773.47;;;0.43;76.31
4705;BME280;2366;51.332;6.610;2022-12-10T05:33:43;100772.53;;;0.45;76.61
4705;BME280;2366;51.332;6.610;2022-12-10T05:36:10;100774.22;;;0.48;76.33
4705;BME280;2366;51.332;6.610;2022-12-10T05:38:36;100767.19;;;0.53;76.60
4705;BME280;2366;51.332;6.610;2022-12-10T05:41:08;100777.53;;;0.57;76.54
4705;BME280;2366;51.332;6.610;2022-12-10T05:43:34;100784.41;;;0.63;76.59
4705;BME280;2366;51.332;6.610;2022-12-10T05:46:04;100784.16;;;0.75;76.84
4705;BME280;2366;51.332;6.610;2022-12-10T05:48:30;100780.38;;;0.90;76.99
4705;BME280;2366;51.332;6.610;2022-12-10T05:50:56;100777.47;;;1.04;77.04
4705;BME280;2366;51.332;6.610;2022-12-10T05:53:21;100777.31;;;1.13;76.99
4705;BME280;2366;51.332;6.610;2022-12-10T05:55:47;100776.56;;;1.07;76.15
4705;BME280;2366;51.332;6.610;2022-12-10T05:58:12;100774.09;;;0.99;75.90
4705;BME280;2366;51.332;6.610;2022-12-10T06:00:39;100776.91;;;0.91;76.11
4705;BME280;2366;51.332;6.610;2022-12-10T06:03:04;100781.34;;;0.85;76.02
4705;BME280;2366;51.332;6.610;2022-12-10T06:05:38;100787.56;;;0.80;76.13
4705;BME280;2366;51.332;6.610;2022-12-10T06:08:04;100791.00;;;0.82;76.52
4705;BME280;2366;51.332;6.610;2022-12-10T06:10:30;100791.88;;;0.81;76.56
4705;BME280;2366;51.332;6.610;2022-12-10T06:12:55;100795.31;;;0.84;76.66
4705;BME280;2366;51.332;6.610;2022-12-10T06:15:20;100796.00;;;0.93;77.00
4705;BME280;2366;51.332;6.610;2022-12-10T06:17:46;100795.75;;;1.04;77.28
4705;BME280;2366;51.332;6.610;2022-12-10T06:20:11;100796.34;;;1.17;77.19
4705;BME280;2366;51.332;6.610;2022-12-10T06:22:36;100797.88;;;1.29;77.34
4705;BME280;2366;51.332;6.610;2022-12-10T06:25:02;100799.31;;;1.42;77.08
4705;BME280;2366;51.332;6.610;2022-12-10T06:27:30;100807.72;;;1.56;77.22
4705;BME280;2366;51.332;6.610;2022-12-10T06:29:56;100803.97;;;1.67;77.31
4705;BME280;2366;51.332;6.610;2022-12-10T06:32:21;100806.47;;;1.71;77.11
4705;BME280;2366;51.332;6.610;2022-12-10T06:34:47;100808.91;;;1.80;76.83
4705;BME280;2366;51.332;6.610;2022-12-10T06:37:12;100816.63;;;1.87;76.77
4705;BME280;2366;51.332;6.610;2022-12-10T06:39:37;100810.34;;;1.94;77.32
4705;BME280;2366;51.332;6.610;2022-12-10T06:42:03;100822.38;;;1.99;77.11
4705;BME280;2366;51.332;6.610;2022-12-10T06:44:28;100817.88;;;2.06;77.27
4705;BME280;2366;51.332;6.610;2022-12-10T06:46:53;100818.53;;;2.14;77.61
4705;BME280;2366;51.332;6.610;2022-12-10T06:49:18;100824.56;;;2.18;77.56
4705;BME280;2366;51.332;6.610;2022-12-10T06:51:44;100827.91;;;2.23;76.94
4705;BME280;2366;51.332;6.610;2022-12-10T06:54:09;100827.78;;;2.28;77.23
4705;BME280;2366;51.332;6.610;2022-12-10T06:56:34;100831.28;;;2.28;76.52
4705;BME280;2366;51.332;6.610;2022-12-10T06:59:04;100826.94;;;2.27;76.89
4705;BME280;2366;51.332;6.610;2022-12-10T07:01:31;100824.31;;;2.27;76.53
4705;BME280;2366;51.332;6.610;2022-12-10T07:03:56;100841.66;;;2.31;76.57
4705;BME280;2366;51.332;6.610;2022-12-10T07:06:23;100833.75;;;2.34;76.34
4705;BME280;2366;51.332;6.610;2022-12-10T07:08:49;100828.44;;;2.37;77.07
4705;BME280;2366;51.332;6.610;2022-12-10T07:11:19;100830.97;;;2.40;76.68
4705;BME280;2366;51.332;6.610;2022-12-10T07:13:45;100828.34;;;2.40;76.74
4705;BME280;2366;51.332;6.610;2022-12-10T07:16:19;100825.66;;;2.43;77.00
4705;BME280;2366;51.332;6.610;2022-12-10T07:18:45;100832.66;;;2.43;76.21
4705;BME280;2366;51.332;6.610;2022-12-10T07:21:30;100835.38;;;2.38;76.77
4705;BME280;2366;51.332;6.610;2022-12-10T07:23:59;100842.41;;;2.36;76.10
4705;BME280;2366;51.332;6.610;2022-12-10T07:26:25;100850.22;;;2.38;76.31
4705;BME280;2366;51.332;6.610;2022-12-10T07:28:50;100850.22;;;2.38;76.26
4705;BME280;2366;51.332;6.610;2022-12-10T07:31:16;100850.19;;;2.39;76.14
4705;BME280;2366;51.332;6.610;2022-12-10T07:33:42;100847.59;;;2.38;75.87
4705;BME280;2366;51.332;6.610;2022-12-10T07:36:11;100849.63;;;2.28;75.62
4705;BME280;2366;51.332;6.610;2022-12-10T07:38:38;100857.47;;;2.28;76.20
4705;BME280;2366;51.332;6.610;2022-12-10T07:41:05;100855.50;;;2.36;76.87
4705;BME280;2366;51.332;6.610;2022-12-10T07:43:33;100857.13;;;2.40;75.55
4705;BME280;2366;51.332;6.610;2022-12-10T07:48:54;100862.19;;;2.48;75.58
4705;BME280;2366;51.332;6.610;2022-12-10T07:51:21;100861.53;;;2.38;73.65
4705;BME280;2366;51.332;6.610;2022-12-10T07:53:50;100862.56;;;2.34;74.92
4705;BME280;2366;51.332;6.610;2022-12-10T07:56:16;100866.88;;;2.35;75.00
4705;BME280;2366;51.332;6.610;2022-12-10T07:58:42;100871.75;;;2.49;75.73
4705;BME280;2366;51.332;6.610;2022-12-10T08:01:11;100871.41;;;2.63;75.95
4705;BME280;2366;51.332;6.610;2022-12-10T08:03:37;100870.47;;;2.65;74.76
4705;BME280;2366;51.332;6.610;2022-12-10T08:06:04;100871.44;;;2.61;75.38
4705;BME280;2366;51.332;6.610;2022-12-10T08:08:30;100866.13;;;2.64;75.38
4705;BME280;2366;51.332;6.610;2022-12-10T08:10:59;100872.97;;;2.70;75.22
4705;BME280;2366;51.332;6.610;2022-12-10T08:13:24;100870.31;;;2.72;74.88
4705;BME280;2366;51.332;6.610;2022-12-10T08:15:49;100872.78;;;2.78;75.43
4705;BME280;2366;51.332;6.610;2022-12-10T08:18:15;100877.72;;;2.88;75.04
4705;BME280;2366;51.332;6.610;2022-12-10T08:20:40;100879.59;;;2.83;74.57
4705;BME280;2366;51.332;6.610;2022-12-10T08:23:05;100890.31;;;2.74;73.73
4705;BME280;2366;51.332;6.610;2022-12-10T08:25:31;100886.88;;;2.72;74.10
4705;BME280;2366;51.332;6.610;2022-12-10T08:27:56;100890.16;;;2.80;74.56
4705;BME280;2366;51.332;6.610;2022-12-10T08:30:22;100894.31;;;2.89;75.10
4705;BME280;2366;51.332;6.610;2022-12-10T08:32:48;100890.63;;;2.95;74.76
4705;BME280;2366;51.332;6.610;2022-12-10T08:35:13;100902.81;;;2.97;75.34
4705;BME280;2366;51.332;6.610;2022-12-10T08:37:41;100904.41;;;3.03;74.20
4705;BME280;2366;51.332;6.610;2022-12-10T08:40:07;100909.56;;;3.06;74.21
4705;BME280;2366;51.332;6.610;2022-12-10T08:42:32;100911.25;;;3.08;74.73
4705;BME280;2366;51.332;6.610;2022-12-10T08:44:58;100900.53;;;3.16;74.03
4705;BME280;2366;51.332;6.610;2022-12-10T08:47:23;100917.22;;;3.14;74.45
4705;BME280;2366;51.332;6.610;2022-12-10T08:49:48;100922.59;;;3.07;73.47
4705;BME280;2366;51.332;6.610;2022-12-10T08:52:14;100926.44;;;2.96;73.09
4705;BME280;2366;51.332;6.610;2022-12-10T08:54:39;100925.19;;;2.76;73.09
4705;BME280;2366;51.332;6.610;2022-12-10T08:57:04;100931.31;;;2.75;72.94
4705;BME280;2366;51.332;6.610;2022-12-10T08:59:30;100928.34;;;2.89;73.18
4705;BME280;2366;51.332;6.610;2022-12-10T09:01:55;100931.38;;;3.06;73.73
4705;BME280;2366;51.332;6.610;2022-12-10T09:04:20;100931.25;;;3.11;72.91
4705;BME280;2366;51.332;6.610;2022-12-10T09:06:45;100934.59;;;3.16;73.22
4705;BME280;2366;51.332;6.610;2022-12-10T09:09:11;100933.56;;;3.23;73.35
4705;BME280;2366;51.332;6.610;2022-12-10T09:11:36;100936.09;;;3.26;72.75
4705;BME280;2366;51.332;6.610;2022-12-10T09:14:02;100934.84;;;3.40;72.58
4705;BME280;2366;51.332;6.610;2022-12-10T09:16:33;100945.59;;;3.31;72.17
4705;BME280;2366;51.332;6.610;2022-12-10T09:19:00;100949.56;;;3.44;72.89
4705;BME280;2366;51.332;6.610;2022-12-10T09:21:25;100940.06;;;3.40;71.40
4705;BME280;2366;51.332;6.610;2022-12-10T09:23:51;100947.50;;;3.24;71.56
4705;BME280;2366;51.332;6.610;2022-12-10T09:26:17;100953.44;;;3.31;71.46
4705;BME280;2366;51.332;6.610;2022-12-10T09:28:43;100961.97;;;3.39;71.77
4705;BME280;2366;51.332;6.610;2022-12-10T09:31:09;100958.38;;;3.43;70.57
4705;BME280;2366;51.332;6.610;2022-12-10T09:33:36;100952.91;;;3.49;71.50
4705;BME280;2366;51.332;6.610;2022-12-10T09:36:06;100955.13;;;3.64;71.21
4705;BME280;2366;51.332;6.610;2022-12-10T09:38:37;100961.81;;;3.75;71.66
4705;BME280;2366;51.332;6.610;2022-12-10T09:41:19;100966.16;;;3.76;70.62
4705;BME280;2366;51.332;6.610;2022-12-10T09:44:38;100967.91;;;3.75;71.04
4705;BME280;2366;51.332;6.610;2022-12-10T09:46:52;100960.66;;;3.85;70.57
4705;BME280;2366;51.332;6.610;2022-12-10T09:52:00;100958.56;;;3.96;69.29
4705;BME280;2366;51.332;6.610;2022-12-10T09:54:31;100947.09;;;3.99;67.83
4705;BME280;2366;51.332;6.610;2022-12-10T09:56:58;100951.59;;;3.95;68.54
4705;BME280;2366;51.332;6.610;2022-12-10T09:59:30;100944.06;;;4.13;68.40
4705;BME280;2366;51.332;6.610;2022-12-10T10:02:24;100952.59;;;4.21;67.90
4705;BME280;2366;51.332;6.610;2022-12-10T10:04:49;100946.31;;;4.25;68.52
4705;BME280;2366;51.332;6.610;2022-12-10T10:07:24;100952.91;;;4.38;67.75
4705;BME280;2366;51.332;6.610;2022-12-10T10:09:55;100949.25;;;4.42;68.04
4705;BME280;2366;51.332;6.610;2022-12-10T10:12:21;100953.50;;;4.46;67.29
4705;BME280;2366;51.332;6.610;2022-12-10T10:14:47;100953.84;;;4.36;66.83
4705;BME280;2366;51.332;6.610;2022-12-10T10:17:26;100951.09;;;4.40;67.45
4705;BME280;2366;51.332;6.610;2022-12-10T10:19:52;100958.56;;;4.52;67.24
4705;BME280;2366;51.332;6.610;2022-12-10T10:22:18;100949.84;;;4.52;66.33
4705;BME280;2366;51.332;6.610;2022-12-10T10:24:44;100948.25;;;4.46;66.53
4705;BME280;2366;51.332;6.610;2022-12-10T10:27:20;100938.81;;;4.41;66.56
4705;BME280;2366;51.332;6.610;2022-12-10T10:29:52;100947.16;;;4.53;66.58
4705;BME280;2366;51.332;6.610;2022-12-10T10:32:20;100948.06;;;4.52;65.84
4705;BME280;2366;51.332;6.610;2022-12-10T10:34:52;100947.91;;;4.57;65.77
4705;BME280;2366;51.332;6.610;2022-12-10T10:37:22;100945.78;;;4.42;65.16
4705;BME280;2366;51.332;6.610;2022-12-10T10:39:50;100945.97;;;4.36;65.23
4705;BME280;2366;51.332;6.610;2022-12-10T10:42:39;100948.03;;;4.26;65.73
4705;BME280;2366;51.332;6.610;2022-12-10T10:45:41;100949.47;;;4.36;66.17
4705;BME280;2366;51.332;6.610;2022-12-10T10:48:09;100945.72;;;4.43;66.11
4705;BME280;2366;51.332;6.610;2022-12-10T10:50:45;100951.75;;;4.47;65.51
4705;BME280;2366;51.332;6.610;2022-12-10T10:55:46;100932.41;;;4.49;66.00
4705;BME280;2366;51.332;6.610;2022-12-10T10:58:19;100934.69;;;4.60;66.29
4705;BME280;2366;51.332;6.610;2022-12-10T11:00:56;100926.19;;;4.52;64.83
4705;BME280;2366;51.332;6.610;2022-12-10T11:03:22;100935.34;;;4.40;65.91
4705;BME280;2366;51.332;6.610;2022-12-10T11:05:48;100936.13;;;4.42;66.17
4705;BME280;2366;51.332;6.610;2022-12-10T11:08:16;100931.59;;;4.47;66.30
4705;BME280;2366;51.332;6.610;2022-12-10T11:10:51;100937.72;;;4.48;65.91
4705;BME280;2366;51.332;6.610;2022-12-10T11:13:25;100934.91;;;4.52;65.90
4705;BME280;2366;51.332;6.610;2022-12-10T11:18:30;100937.34;;;4.59;66.22
4705;BME280;2366;51.332;6.610;2022-12-10T11:21:05;100924.06;;;4.63;65.60
4705;BME280;2366;51.332;6.610;2022-12-10T11:23:36;100932.56;;;4.71;66.15
4705;BME280;2366;51.332;6.610;2022-12-10T11:26:17;100925.69;;;4.67;65.53
4705;BME280;2366;51.332;6.610;2022-12-10T11:28:50;100929.34;;;4.62;65.93
4705;BME280;2366;51.332;6.610;2022-12-10T11:34:45;100932.56;;;4.71;65.84
4705;BME280;2366;51.332;6.610;2022-12-10T11:37:26;100935.63;;;4.84;65.67
4705;BME280;2366;51.332;6.610;2022-12-10T11:40:21;100925.47;;;4.99;65.76
4705;BME280;2366;51.332;6.610;2022-12-10T11:50:52;100934.19;;;4.76;65.60
4705;BME280;2366;51.332;6.610;2022-12-10T11:53:41;100938.41;;;4.80;65.16
4705;BME280;2366;51.332;6.610;2022-12-10T11:56:35;100934.34;;;4.71;66.19
4705;BME280;2366;51.332;6.610;2022-12-10T11:59:23;100924.56;;;4.74;66.00
4705;BME280;2366;51.332;6.610;2022-12-10T12:01:58;100935.88;;;4.77;65.38
4705;BME280;2366;51.332;6.610;2022-12-10T12:10:23;100945.94;;;4.64;65.72
4705;BME280;2366;51.332;6.610;2022-12-10T12:13:05;100944.75;;;4.72;66.06
4705;BME280;2366;51.332;6.610;2022-12-10T12:21:08;100932.50;;;4.73;66.11
4705;BME280;2366;51.332;6.610;2022-12-10T12:23:55;100927.94;;;4.78;66.08
4705;BME280;2366;51.332;6.610;2022-12-10T12:26:35;100926.66;;;4.90;65.86
4705;BME280;2366;51.332;6.610;2022-12-10T12:31:42;100927.34;;;4.97;65.20
4705;BME280;2366;51.332;6.610;2022-12-10T12:36:41;100928.47;;;4.88;64.81
4705;BME280;2366;51.332;6.610;2022-12-10T12:39:17;100919.00;;;4.84;65.45
4705;BME280;2366;51.332;6.610;2022-12-10T12:41:50;100926.91;;;4.84;64.61
4705;BME280;2366;51.332;6.610;2022-12-10T12:44:24;100925.81;;;4.89;65.23
4705;BME280;2366;51.332;6.610;2022-12-10T12:46:56;100930.75;;;4.99;64.61
4705;BME280;2366;51.332;6.610;2022-12-10T12:49:35;100936.75;;;5.02;65.05
4705;BME280;2366;51.332;6.610;2022-12-10T12:52:40;100938.50;;;5.03;64.30
4705;BME280;2366;51.332;6.610;2022-12-10T12:55:55;100928.44;;;4.89;64.06
4705;BME280;2366;51.332;6.610;2022-12-10T12:58:40;100934.13;;;4.77;64.63
4705;BME280;2366;51.332;6.610;2022-12-10T13:01:29;100940.47;;;4.70;65.07
4705;BME280;2366;51.332;6.610;2022-12-10T13:03:56;100937.97;;;4.67;65.63
4705;BME280;2366;51.332;6.610;2022-12-10T13:06:34;100938.56;;;4.75;65.85
4705;BME280;2366;51.332;6.610;2022-12-10T13:11:40;100945.84;;;4.67;65.55
4705;BME280;2366;51.332;6.610;2022-12-10T13:48:54;100948.13;;;4.78;65.25
4705;BME280;2366;51.332;6.610;2022-12-10T13:51:39;100950.78;;;4.76;65.29
4705;BME280;2366;51.332;6.610;2022-12-10T13:56:40;100960.66;;;4.69;65.34
4705;BME280;2366;51.332;6.610;2022-12-10T14:05:12;100960.53;;;4.72;66.40
4705;BME280;2366;51.332;6.610;2022-12-10T14:07:45;100961.19;;;4.79;66.08
4705;BME280;2366;51.332;6.610;2022-12-10T14:10:15;100965.91;;;4.69;66.56
4705;BME280;2366;51.332;6.610;2022-12-10T14:12:41;100967.06;;;4.61;65.83
4705;BME280;2366;51.332;6.610;2022-12-10T14:15:17;100970.38;;;4.66;66.38
4705;BME280;2366;51.332;6.610;2022-12-10T14:17:44;100969.56;;;4.64;66.24
4705;BME280;2366;51.332;6.610;2022-12-10T14:20:30;100968.69;;;4.65;66.36
4705;BME280;2366;51.332;6.610;2022-12-10T14:23:03;100964.66;;;4.53;66.39
4705;BME280;2366;51.332;6.610;2022-12-10T14:25:47;100958.75;;;4.46;66.56
4705;BME280;2366;51.332;6.610;2022-12-10T14:28:16;100958.06;;;4.41;66.35
4705;BME280;2366;51.332;6.610;2022-12-10T14:30:47;100969.19;;;4.21;67.22
4705;BME280;2366;51.332;6.610;2022-12-10T14:33:17;100965.44;;;4.28;68.25
4705;BME280;2366;51.332;6.610;2022-12-10T14:35:47;100976.47;;;4.40;67.77
4705;BME280;2366;51.332;6.610;2022-12-10T14:38:23;100973.56;;;4.49;67.12
4705;BME280;2366;51.332;6.610;2022-12-10T14:40:53;100976.31;;;4.44;67.18
4705;BME280;2366;51.332;6.610;2022-12-10T14:43:31;100975.50;;;4.42;67.83
4705;BME280;2366;51.332;6.610;2022-12-10T14:45:59;100974.47;;;4.48;67.47
4705;BME280;2366;51.332;6.610;2022-12-10T14:48:26;100970.13;;;4.47;67.81
4705;BME280;2366;51.332;6.610;2022-12-10T14:50:52;100970.41;;;4.38;68.00
4705;BME280;2366;51.332;6.610;2022-12-10T14:53:26;100973.84;;;4.40;67.92
4705;BME280;2366;51.332;6.610;2022-12-10T14:56:02;100981.69;;;4.41;68.43
4705;BME280;2366;51.332;6.610;2022-12-10T14:58:30;100981.53;;;4.46;68.49
4705;BME280;2366;51.332;6.610;2022-12-10T15:01:00;100986.75;;;4.47;68.70
4705;BME280;2366;51.332;6.610;2022-12-10T15:03:32;100978.09;;;4.44;68.01
4705;BME280;2366;51.332;6.610;2022-12-10T15:06:02;100982.44;;;4.45;67.75
4705;BME280;2366;51.332;6.610;2022-12-10T15:08:30;100989.53;;;4.43;68.11
4705;BME280;2366;51.332;6.610;2022-12-10T15:10:57;100988.84;;;4.36;68.39
4705;BME280;2366;51.332;6.610;2022-12-10T15:15:50;100989.22;;;4.24;68.47
4705;BME280;2366;51.332;6.610;2022-12-10T15:18:19;100993.44;;;4.29;68.94
4705;BME280;2366;51.332;6.610;2022-12-10T15:20:51;100991.50;;;4.35;68.97
4705;BME280;2366;51.332;6.610;2022-12-10T15:23:25;100994.63;;;4.47;68.95
4705;BME280;2366;51.332;6.610;2022-12-10T15:28:36;100988.78;;;4.38;68.46